Time;durP1;ratioP1;P1;durP2;ratioP2;P2;SDS_P1;SDS_P2;PMS_P1;PMS_P2;Temp;Humidity;BMP_temperature;BMP_pressure;BME280_temperature;BME280_humidity;BME280_pressure;Samples;Min_cycle;Max_cycle;Signal;HPM_P1;HPM_P2
2022/07/26 00:01:01;;;;;;;12.05;2.15;;;20.10;99.90;;;;;;4836291;29;20533;-36
2022/07/26 00:03:27;;;;;;;8.00;1.55;;;20.10;99.90;;;;;;4838127;29;20025;-37
2022/07/26 00:05:53;;;;;;;10.60;2.55;;;20.10;99.90;;;;;;4839178;29;20029;-38
2022/07/26 00:08:18;;;;;;;8.32;1.90;;;20.10;99.90;;;;;;4820242;29;20395;-37
2022/07/26 00:10:47;;;;;;;13.05;2.65;;;20.10;99.90;;;;;;4835883;29;20030;-33
2022/07/26 00:13:15;;;;;;;8.65;1.77;;;20.10;99.90;;;;;;4837341;29;20086;-37
2022/07/26 00:15:41;;;;;;;12.82;2.58;;;20.10;99.90;;;;;;4834302;29;20073;-41
2022/07/26 00:18:07;;;;;;;12.93;2.40;;;20.10;99.90;;;;;;4839382;29;20589;-37
2022/07/26 00:20:32;;;;;;;10.80;2.03;;;20.10;99.90;;;;;;4831685;29;20503;-37
2022/07/26 00:22:58;;;;;;;7.88;1.55;;;20.20;99.90;;;;;;4834351;29;20050;-36
2022/07/26 00:25:24;;;;;;;5.63;1.85;;;20.20;99.90;;;;;;4829733;29;20017;-40
2022/07/26 00:27:50;;;;;;;7.63;1.73;;;20.20;99.90;;;;;;4834027;29;20030;-35
2022/07/26 00:30:15;;;;;;;15.75;1.98;;;20.20;99.90;;;;;;4834604;29;20045;-35
2022/07/26 00:32:41;;;;;;;11.25;2.45;;;20.20;99.90;;;;;;4832099;29;20416;-33
2022/07/26 00:35:07;;;;;;;14.25;2.45;;;20.20;99.90;;;;;;4834570;29;20026;-37
2022/07/26 00:37:33;;;;;;;17.95;2.83;;;20.20;99.90;;;;;;4836579;29;20029;-33
2022/07/26 00:39:59;;;;;;;11.32;2.35;;;20.20;99.90;;;;;;4835921;29;20045;-56
2022/07/26 00:42:24;;;;;;;16.65;2.38;;;20.30;99.90;;;;;;4839547;29;20036;-36
2022/07/26 00:44:50;;;;;;;14.50;2.45;;;20.30;99.90;;;;;;4834524;29;20041;-32
2022/07/26 00:47:16;;;;;;;13.52;2.67;;;20.30;99.90;;;;;;4833504;29;20030;-34
2022/07/26 00:49:42;;;;;;;8.52;1.50;;;20.20;99.90;;;;;;4821197;29;20034;-39
2022/07/26 00:52:09;;;;;;;5.65;1.23;;;20.10;99.90;;;;;;4831427;29;20089;-40
2022/07/26 00:54:37;;;;;;;5.32;1.55;;;20.10;99.90;;;;;;4833543;29;20518;-40
2022/07/26 00:57:03;;;;;;;16.65;2.30;;;20.10;99.90;;;;;;4838571;29;20033;-38
2022/07/26 00:59:29;;;;;;;4.28;1.20;;;20.10;99.90;;;;;;4838267;29;20599;-33
2022/07/26 01:01:55;;;;;;;4.18;1.25;;;20.10;99.90;;;;;;4842322;29;20029;-38
2022/07/26 01:04:20;;;;;;;4.82;1.35;;;20.10;99.90;;;;;;4838600;29;20313;-35
2022/07/26 01:06:48;;;;;;;4.20;1.58;;;20.10;99.90;;;;;;4830782;29;20038;-38
2022/07/26 01:09:14;;;;;;;2.67;0.90;;;20.00;99.90;;;;;;4842524;29;20508;-38
2022/07/26 01:11:40;;;;;;;3.75;1.33;;;20.00;99.90;;;;;;4832948;29;20032;-35
2022/07/26 01:14:06;;;;;;;8.48;1.38;;;20.00;99.90;;;;;;4833865;29;21340;-37
2022/07/26 01:16:32;;;;;;;3.08;1.30;;;20.00;99.90;;;;;;4830879;29;20036;-36
2022/07/26 01:18:57;;;;;;;5.68;1.45;;;20.00;99.90;;;;;;4832207;29;20064;-38
2022/07/26 01:21:28;;;;;;;3.17;1.70;;;19.90;99.90;;;;;;4837433;29;20108;-41
2022/07/26 01:23:54;;;;;;;5.47;1.10;;;19.90;99.90;;;;;;4829941;29;20616;-34
2022/07/26 01:26:20;;;;;;;8.30;1.50;;;19.80;99.90;;;;;;4837801;29;20037;-36
2022/07/26 01:28:48;;;;;;;2.42;1.48;;;19.80;99.90;;;;;;4832965;29;20084;-40
2022/07/26 01:31:14;;;;;;;7.20;1.17;;;19.70;99.90;;;;;;4841503;29;20034;-37
2022/07/26 01:33:40;;;;;;;5.80;1.20;;;19.70;99.90;;;;;;4842676;29;20516;-38
2022/07/26 01:36:06;;;;;;;2.67;1.10;;;19.70;99.90;;;;;;4839051;29;20455;-38
2022/07/26 01:38:32;;;;;;;3.33;1.08;;;19.70;99.90;;;;;;4840370;29;20044;-35
2022/07/26 01:40:57;;;;;;;4.15;1.13;;;19.70;99.90;;;;;;4817543;29;20507;-38
2022/07/26 01:43:23;;;;;;;3.10;1.33;;;19.60;99.90;;;;;;4837405;29;20097;-34
2022/07/26 01:45:48;;;;;;;3.63;1.23;;;19.60;99.90;;;;;;4837215;29;20547;-46
2022/07/26 01:48:14;;;;;;;5.40;1.42;;;19.60;99.90;;;;;;4837792;29;20030;-36
2022/07/26 01:50:40;;;;;;;2.00;1.20;;;19.60;99.90;;;;;;4835531;29;20030;-39
2022/07/26 01:53:05;;;;;;;1.85;1.17;;;19.50;99.90;;;;;;4839018;29;20482;-39
2022/07/26 01:55:31;;;;;;;4.57;1.33;;;19.50;99.90;;;;;;4833533;29;20495;-33
2022/07/26 01:57:57;;;;;;;5.50;1.45;;;19.50;99.90;;;;;;4833486;29;20108;-39
2022/07/26 02:00:22;;;;;;;5.63;1.38;;;19.50;99.90;;;;;;4829092;29;20086;-39
2022/07/26 02:02:48;;;;;;;2.60;0.90;;;19.50;99.90;;;;;;4832104;29;20503;-37
2022/07/26 02:05:13;;;;;;;4.40;1.15;;;19.40;99.90;;;;;;4836672;29;20092;-39
2022/07/26 02:07:44;;;;;;;3.15;0.88;;;19.40;99.90;;;;;;4832756;29;20026;-36
2022/07/26 02:10:10;;;;;;;6.57;1.33;;;19.40;99.90;;;;;;4831960;29;20102;-38
2022/07/26 02:12:36;;;;;;;6.00;1.37;;;19.30;99.90;;;;;;4834523;29;20044;-45
2022/07/26 02:15:04;;;;;;;7.13;2.10;;;19.30;99.90;;;;;;4836948;29;20038;-36
2022/07/26 02:17:29;;;;;;;;;;;19.30;99.90;;;;;;4833699;29;20503;-39
2022/07/26 02:19:55;;;;;;;2.85;1.20;;;19.30;99.90;;;;;;4836952;29;20004;-35
2022/07/26 02:22:21;;;;;;;5.07;1.02;;;19.30;99.90;;;;;;4817486;29;20543;-39
2022/07/26 02:24:47;;;;;;;5.28;1.60;;;19.30;99.90;;;;;;4833627;29;20030;-40
2022/07/26 02:27:13;;;;;;;4.75;1.52;;;19.30;99.90;;;;;;4837851;29;20061;-41
2022/07/26 02:29:39;;;;;;;4.45;1.42;;;19.30;99.90;;;;;;4832432;29;20025;-39
2022/07/26 02:32:05;;;;;;;7.82;1.27;;;19.30;99.90;;;;;;4833409;29;20056;-35
2022/07/26 02:34:31;;;;;;;5.78;1.00;;;19.30;99.90;;;;;;4836475;29;20243;-38
2022/07/26 02:36:57;;;;;;;1.17;1.10;;;19.30;99.90;;;;;;4836096;29;20541;-35
2022/07/26 02:39:26;;;;;;;4.70;1.38;;;19.20;99.90;;;;;;4828969;29;20042;-40
2022/07/26 02:41:53;;;;;;;7.00;1.27;;;19.20;99.90;;;;;;4839558;29;20569;-67
2022/07/26 02:44:19;;;;;;;5.25;1.10;;;19.10;99.90;;;;;;4833432;29;20759;-34
2022/07/26 02:46:45;;;;;;;8.88;1.27;;;19.10;99.90;;;;;;4839439;29;20349;-41
2022/07/26 02:49:10;;;;;;;4.63;1.05;;;19.10;99.90;;;;;;4813029;29;20066;-36
2022/07/26 02:51:36;;;;;;;4.07;0.90;;;19.10;99.90;;;;;;4834275;29;20032;-38
2022/07/26 02:54:20;;;;;;;2.92;1.30;;;19.10;99.90;;;;;;4831369;29;21060;-39
2022/07/26 02:56:45;;;;;;;2.78;1.08;;;19.00;99.90;;;;;;4833757;29;20045;-38
2022/07/26 02:59:11;;;;;;;2.97;1.27;;;18.90;99.90;;;;;;4834645;29;20418;-40
2022/07/26 03:01:38;;;;;;;6.03;1.40;;;18.90;99.90;;;;;;4840459;29;20372;-36
2022/07/26 03:04:06;;;;;;;5.90;1.10;;;18.90;99.90;;;;;;4836480;29;20038;-39
2022/07/26 03:06:32;;;;;;;5.20;1.35;;;18.80;99.90;;;;;;4836902;29;20040;-35
2022/07/26 03:08:58;;;;;;;5.60;1.17;;;18.70;99.90;;;;;;4834518;29;20038;-38
2022/07/26 03:11:24;;;;;;;6.03;1.30;;;18.80;99.90;;;;;;4837520;29;20038;-41
2022/07/26 03:13:49;;;;;;;6.32;1.40;;;18.70;99.90;;;;;;4830672;29;20289;-35
2022/07/26 03:16:15;;;;;;;5.47;1.30;;;18.80;99.90;;;;;;4833232;29;20036;-36
2022/07/26 03:18:40;;;;;;;2.70;1.05;;;18.80;99.90;;;;;;4837832;29;20522;-40
2022/07/26 03:21:06;;;;;;;5.85;1.42;;;18.70;99.90;;;;;;4839774;29;20033;-37
2022/07/26 03:23:33;;;;;;;11.40;1.23;;;18.70;99.90;;;;;;4832337;29;20034;-35
2022/07/26 03:26:00;;;;;;;3.72;1.10;;;18.80;99.90;;;;;;4834672;29;20117;-41
2022/07/26 03:28:29;;;;;;;7.33;1.00;;;18.80;99.90;;;;;;4833977;29;20177;-36
2022/07/26 03:30:54;;;;;;;1.83;0.90;;;18.80;99.90;;;;;;4837523;29;20403;-38
2022/07/26 03:33:20;;;;;;;10.13;1.02;;;18.70;99.90;;;;;;4832664;29;20022;-40
2022/07/26 03:35:45;;;;;;;4.43;0.75;;;18.70;99.90;;;;;;4835506;29;20022;-38
2022/07/26 03:38:11;;;;;;;10.52;1.27;;;18.70;99.90;;;;;;4826643;29;20687;-36
2022/07/26 03:40:37;;;;;;;8.35;0.98;;;18.70;99.90;;;;;;4838976;29;20042;-39
2022/07/26 03:43:02;;;;;;;4.00;1.05;;;18.70;99.90;;;;;;4835419;29;20026;-38
2022/07/26 03:45:28;;;;;;;5.22;1.20;;;18.70;99.90;;;;;;4832669;29;20037;-38
2022/07/26 03:47:54;;;;;;;2.00;0.90;;;18.70;99.90;;;;;;4837756;29;20030;-42
2022/07/26 03:50:19;;;;;;;2.58;1.02;;;18.70;99.90;;;;;;4837761;29;20384;-33
2022/07/26 03:52:45;;;;;;;4.07;1.00;;;18.60;99.90;;;;;;4835390;29;20050;-33
2022/07/26 03:57:55;;;;;;;2.42;0.90;;;18.60;99.90;;;;;;4823918;29;20045;-40
2022/07/26 04:00:21;;;;;;;3.67;0.95;;;18.50;99.90;;;;;;4839792;29;20500;-36
2022/07/26 04:02:46;;;;;;;1.17;1.02;;;18.50;99.90;;;;;;4836341;29;20127;-35
2022/07/26 04:05:12;;;;;;;9.48;1.33;;;18.50;99.90;;;;;;4835209;29;20038;-38
2022/07/26 04:07:45;;;;;;;8.50;1.15;;;18.50;99.90;;;;;;4832092;29;20555;-38
2022/07/26 04:10:12;;;;;;;3.10;1.35;;;18.50;99.90;;;;;;4834205;29;20116;-35
2022/07/26 04:12:37;;;;;;;2.53;1.08;;;18.50;99.90;;;;;;4837716;29;20034;-38
2022/07/26 04:15:04;;;;;;;6.13;1.25;;;18.50;99.90;;;;;;4835586;29;20082;-38
2022/07/26 04:17:39;;;;;;;5.93;1.27;;;18.50;99.90;;;;;;4840124;29;21033;-38
2022/07/26 04:20:06;;;;;;;3.65;1.23;;;18.50;99.90;;;;;;4836051;29;20034;-37
2022/07/26 04:22:36;;;;;;;2.60;1.02;;;18.50;99.90;;;;;;4836967;29;20033;-38
2022/07/26 04:25:04;;;;;;;4.47;1.38;;;18.60;99.90;;;;;;4838340;29;20034;-38
2022/07/26 04:27:30;;;;;;;4.72;1.02;;;18.50;99.90;;;;;;4833270;29;20034;-35
2022/07/26 04:29:56;;;;;;;3.45;1.25;;;18.60;99.90;;;;;;4840837;29;20576;-34
2022/07/26 04:32:21;;;;;;;5.22;1.05;;;18.60;99.90;;;;;;4835529;29;20029;-38
2022/07/26 04:34:47;;;;;;;8.23;1.17;;;18.60;99.90;;;;;;4836079;29;20384;-38
2022/07/26 04:37:12;;;;;;;7.95;1.55;;;18.70;99.90;;;;;;4837064;29;20483;-38
2022/07/26 04:39:38;;;;;;;9.68;1.10;;;18.70;99.90;;;;;;4836505;29;20068;-34
2022/07/26 04:42:04;;;;;;;2.83;1.20;;;18.70;99.90;;;;;;4835699;29;20057;-37
2022/07/26 04:44:29;;;;;;;5.05;1.35;;;18.70;99.90;;;;;;4833514;29;20045;-36
2022/07/26 04:46:55;;;;;;;4.38;1.45;;;18.70;99.90;;;;;;4836806;29;20034;-54
2022/07/26 04:49:20;;;;;;;7.30;1.48;;;18.70;99.90;;;;;;4840625;29;20030;-38
2022/07/26 04:51:46;;;;;;;4.13;1.63;;;18.70;99.90;;;;;;4836593;29;20026;-36
2022/07/26 04:54:14;;;;;;;1.63;1.25;;;18.70;99.90;;;;;;4838642;29;20034;-37
2022/07/26 04:56:40;;;;;;;5.10;1.40;;;18.70;99.90;;;;;;4835267;29;20382;-37
2022/07/26 04:59:05;;;;;;;4.28;1.80;;;18.80;99.90;;;;;;4834746;29;20046;-33
2022/07/26 05:01:31;;;;;;;5.55;1.42;;;18.70;99.90;;;;;;4833613;29;20102;-36
2022/07/26 05:03:56;;;;;;;3.40;1.40;;;18.80;99.90;;;;;;4839440;29;20044;-38
2022/07/26 05:06:22;;;;;;;7.50;1.70;;;18.70;99.90;;;;;;4834663;29;20106;-32
2022/07/26 05:08:48;;;;;;;4.63;1.70;;;18.70;99.90;;;;;;4838882;29;20037;-36
2022/07/26 05:11:13;;;;;;;8.18;1.58;;;18.70;99.90;;;;;;4831496;29;20399;-36
2022/07/26 05:13:57;;;;;;;6.35;1.20;;;18.70;99.90;;;;;;4838332;29;20022;-37
2022/07/26 05:16:23;;;;;;;7.07;1.50;;;18.70;99.90;;;;;;4831110;29;20033;-40
2022/07/26 05:18:49;;;;;;;4.05;1.58;;;18.70;99.90;;;;;;4834030;29;20037;-39
2022/07/26 05:21:15;;;;;;;4.07;1.15;;;18.70;99.90;;;;;;4833714;29;20098;-36
2022/07/26 05:23:40;;;;;;;6.40;1.33;;;18.70;99.90;;;;;;4834628;29;20530;-37
2022/07/26 05:26:06;;;;;;;3.80;1.13;;;18.70;99.90;;;;;;4833322;29;20052;-40
2022/07/26 05:28:31;;;;;;;4.30;0.98;;;18.60;99.90;;;;;;4835034;29;20483;-39
2022/07/26 05:30:57;;;;;;;3.80;0.85;;;18.50;99.90;;;;;;4832960;29;20025;-34
2022/07/26 05:33:22;;;;;;;0.90;0.88;;;18.20;99.90;;;;;;4833055;29;20050;-33
2022/07/26 05:35:48;;;;;;;5.68;1.02;;;17.80;99.90;;;;;;4833541;29;20034;-41
2022/07/26 05:38:14;;;;;;;4.60;1.05;;;17.60;99.90;;;;;;4831336;29;20056;-40
2022/07/26 05:40:39;;;;;;;3.20;1.35;;;17.40;99.90;;;;;;4830056;29;20034;-39
2022/07/26 05:43:05;;;;;;;4.13;0.95;;;17.30;99.90;;;;;;4835027;29;20038;-37
2022/07/26 05:45:31;;;;;;;2.95;1.08;;;17.10;99.90;;;;;;4831617;29;20069;-39
2022/07/26 05:47:56;;;;;;;5.00;1.50;;;17.10;99.90;;;;;;4833181;29;20108;-37
2022/07/26 05:50:22;;;;;;;6.80;1.55;;;17.10;99.90;;;;;;4834558;29;20030;-34
2022/07/26 05:52:48;;;;;;;5.20;1.23;;;17.10;99.90;;;;;;4834982;29;20038;-36
2022/07/26 05:55:13;;;;;;;1.60;1.00;;;17.20;99.90;;;;;;4835186;29;20437;-40
2022/07/26 05:57:40;;;;;;;9.23;2.00;;;17.20;99.90;;;;;;4838682;29;20065;-38
2022/07/26 06:00:08;;;;;;;2.45;1.65;;;17.30;99.90;;;;;;4835845;29;20029;-33
2022/07/26 06:02:34;;;;;;;;;;;17.30;99.90;;;;;;4834259;29;20042;-40
2022/07/26 06:04:59;;;;;;;8.73;1.50;;;17.20;99.90;;;;;;4836229;29;20251;-36
2022/07/26 06:07:25;;;;;;;5.75;1.00;;;17.10;99.90;;;;;;4833113;29;20042;-39
2022/07/26 06:09:50;;;;;;;5.53;0.82;;;17.10;99.90;;;;;;4836296;29;20556;-38
2022/07/26 06:12:16;;;;;;;6.82;1.30;;;17.00;99.90;;;;;;4820633;29;20075;-39
2022/07/26 06:14:42;;;;;;;4.15;1.83;;;17.00;99.90;;;;;;4813292;29;20052;-38
2022/07/26 06:17:07;;;;;;;5.60;1.25;;;17.10;99.90;;;;;;4837668;29;20432;-38
2022/07/26 06:19:33;;;;;;;5.40;0.95;;;17.10;99.90;;;;;;4840459;29;20040;-41
2022/07/26 06:21:59;;;;;;;5.97;0.90;;;17.10;99.90;;;;;;4834733;29;20026;-35
2022/07/26 06:24:25;;;;;;;8.93;1.83;;;17.20;99.90;;;;;;4835405;29;20505;-39
2022/07/26 06:26:52;;;;;;;7.45;1.13;;;17.20;99.90;;;;;;4831064;29;20522;-35
2022/07/26 06:29:18;;;;;;;3.53;0.93;;;17.30;99.90;;;;;;4848006;29;20033;-36
2022/07/26 06:31:43;;;;;;;3.03;0.90;;;17.20;99.90;;;;;;4848116;29;20037;-38
2022/07/26 06:34:09;;;;;;;5.43;1.10;;;17.20;99.90;;;;;;4847682;29;20489;-54
2022/07/26 06:36:35;;;;;;;8.85;1.27;;;17.30;99.90;;;;;;4848698;29;20033;-39
2022/07/26 06:39:00;;;;;;;5.05;0.93;;;17.20;99.90;;;;;;4847847;29;20053;-36
2022/07/26 06:41:26;;;;;;;4.45;0.93;;;17.20;99.90;;;;;;4847318;29;20516;-38
2022/07/26 06:43:51;;;;;;;9.77;1.30;;;17.30;99.90;;;;;;4846839;29;20033;-39
2022/07/26 06:46:19;;;;;;;5.22;1.15;;;17.30;99.90;;;;;;4845395;29;20354;-39
2022/07/26 06:48:45;;;;;;;;;;;17.30;99.90;;;;;;4844317;29;20558;-34
2022/07/26 06:51:11;;;;;;;10.27;1.60;;;17.40;99.90;;;;;;4848329;29;20380;-37
2022/07/26 06:53:36;;;;;;;8.77;1.65;;;17.40;99.90;;;;;;4844923;29;20030;-36
2022/07/26 06:56:02;;;;;;;3.85;1.23;;;17.50;99.90;;;;;;4842814;29;20029;-37
2022/07/26 06:58:28;;;;;;;9.23;0.90;;;17.40;99.90;;;;;;4852133;29;20029;-36
2022/07/26 07:00:54;;;;;;;2.55;0.90;;;17.20;99.90;;;;;;4843615;29;20025;-38
2022/07/26 07:03:19;;;;;;;5.53;0.80;;;17.00;99.90;;;;;;4845325;29;20498;-32
2022/07/26 07:05:46;;;;;;;7.60;1.80;;;16.90;99.90;;;;;;4837694;29;20838;-35
2022/07/26 07:08:12;;;;;;;7.32;0.70;;;17.00;99.90;;;;;;4834071;29;20101;-37
2022/07/26 07:10:38;;;;;;;6.65;1.15;;;17.00;99.90;;;;;;4846078;29;20093;-38
2022/07/26 07:13:04;;;;;;;4.90;0.80;;;17.00;99.90;;;;;;4850012;29;20466;-33
2022/07/26 07:15:29;;;;;;;0.77;0.35;;;17.00;99.90;;;;;;4846842;29;20699;-40
2022/07/26 07:17:55;;;;;;;4.80;0.68;;;16.90;99.90;;;;;;4848255;29;20510;-35
2022/07/26 07:20:21;;;;;;;4.63;0.68;;;16.90;99.90;;;;;;4848477;29;20033;-35
2022/07/26 07:22:46;;;;;;;7.53;0.95;;;16.80;99.90;;;;;;4848381;29;20097;-39
2022/07/26 07:25:12;;;;;;;1.02;0.50;;;16.90;99.90;;;;;;4843305;29;20134;-30
2022/07/26 07:27:38;;;;;;;3.67;0.50;;;17.00;99.90;;;;;;4845126;29;20034;-34
2022/07/26 07:30:05;;;;;;;6.78;0.95;;;17.00;99.90;;;;;;4832324;29;20042;-40
2022/07/26 07:32:31;;;;;;;1.15;0.50;;;17.10;99.90;;;;;;4827707;29;20038;-35
2022/07/26 07:34:57;;;;;;;1.55;0.50;;;17.10;99.90;;;;;;4845364;29;20086;-36
2022/07/26 07:37:22;;;;;;;4.88;0.77;;;17.00;99.90;;;;;;4850159;29;20042;-34
2022/07/26 07:39:48;;;;;;;3.70;0.57;;;17.10;99.90;;;;;;4843346;29;20120;-33
2022/07/26 07:42:14;;;;;;;6.20;0.73;;;17.10;99.90;;;;;;4844264;29;20072;-36
2022/07/26 07:44:40;;;;;;;3.30;0.73;;;17.20;99.90;;;;;;4848358;29;20116;-36
2022/07/26 07:47:07;;;;;;;3.17;0.93;;;17.30;99.90;;;;;;4847091;29;20092;-36
2022/07/26 07:49:33;;;;;;;6.00;0.60;;;17.30;99.90;;;;;;4848090;29;20494;-38
2022/07/26 07:51:59;;;;;;;6.90;0.73;;;17.50;99.90;;;;;;4842254;29;20030;-37
2022/07/26 07:54:25;;;;;;;4.40;0.70;;;17.80;99.90;;;;;;4839049;29;20090;-36
2022/07/26 07:56:51;;;;;;;7.78;0.85;;;18.10;99.90;;;;;;4841057;29;20511;-32
2022/07/26 07:59:17;;;;;;;6.20;0.80;;;18.60;99.90;;;;;;4830851;29;20509;-38
2022/07/26 08:01:43;;;;;;;3.95;0.80;;;18.70;99.90;;;;;;4834019;29;20039;-35
2022/07/26 08:04:08;;;;;;;1.20;0.30;;;18.70;99.90;;;;;;4836479;29;20448;-31
2022/07/26 08:06:34;;;;;;;3.20;0.80;;;18.50;99.90;;;;;;4835070;29;20497;-36
2022/07/26 08:09:00;;;;;;;4.88;0.60;;;18.40;99.90;;;;;;4831540;29;20030;-33
2022/07/26 08:11:26;;;;;;;1.05;0.32;;;18.30;99.90;;;;;;4836051;29;20034;-34
2022/07/26 08:13:52;;;;;;;4.50;0.90;;;18.20;99.90;;;;;;4835480;29;20030;-35
2022/07/26 08:16:17;;;;;;;3.25;0.50;;;18.10;99.90;;;;;;4836462;29;20037;-39
2022/07/26 08:18:43;;;;;;;1.13;0.52;;;18.20;99.90;;;;;;4833078;29;20041;-36
2022/07/26 08:21:08;;;;;;;2.85;0.95;;;18.20;99.90;;;;;;4828942;29;20543;-38
2022/07/26 08:23:34;;;;;;;1.20;0.60;;;18.30;99.90;;;;;;4838057;29;20072;-41
2022/07/26 08:26:00;;;;;;;1.27;0.43;;;18.30;99.90;;;;;;4826452;29;20113;-47
2022/07/26 08:28:27;;;;;;;4.20;0.40;;;18.40;99.90;;;;;;4833358;29;20179;-35
2022/07/26 08:30:52;;;;;;;0.60;0.28;;;18.30;99.90;;;;;;4832013;29;20057;-35
2022/07/26 08:33:18;;;;;;;6.68;0.50;;;18.10;99.90;;;;;;4834316;29;20128;-35
2022/07/26 08:35:44;;;;;;;1.15;0.30;;;18.10;99.90;;;;;;4838657;29;20502;-37
2022/07/26 08:38:09;;;;;;;2.60;0.50;;;18.10;99.90;;;;;;4840712;29;20117;-36
2022/07/26 08:40:35;;;;;;;2.65;0.60;;;18.20;99.90;;;;;;4834373;29;20114;-38
2022/07/26 08:43:01;;;;;;;2.28;0.47;;;18.30;99.90;;;;;;4832674;29;20152;-44
2022/07/26 08:45:30;;;;;;;8.02;0.70;;;18.30;99.90;;;;;;4818017;29;20477;-35
2022/07/26 08:47:56;;;;;;;5.45;0.85;;;18.30;99.90;;;;;;4836380;29;20033;-35
2022/07/26 08:50:23;;;;;;;3.87;1.27;;;18.10;99.90;;;;;;4844472;29;20129;-38
2022/07/26 08:52:50;;;;;;;13.93;1.77;;;18.10;99.90;;;;;;4831238;29;20484;-37
2022/07/26 08:55:19;;;;;;;3.25;0.50;;;18.30;99.90;;;;;;4831018;29;20302;-32
2022/07/26 08:57:45;;;;;;;3.75;0.68;;;18.50;99.90;;;;;;4812370;29;20092;-35
2022/07/26 09:00:28;;;;;;;1.38;0.60;;;18.60;99.90;;;;;;4833465;29;20041;-35
2022/07/26 09:02:55;;;;;;;4.45;0.60;;;18.70;99.90;;;;;;4847763;29;20032;-36
2022/07/26 09:05:35;;;;;;;7.67;0.50;;;18.90;99.90;;;;;;4838412;29;20629;-37
2022/07/26 09:08:22;;;;;;;6.18;0.60;;;19.40;99.90;;;;;;4843611;29;20448;-33
2022/07/26 09:10:47;;;;;;;2.53;0.50;;;19.80;99.90;;;;;;4844339;29;20430;-33
2022/07/26 09:13:15;;;;;;;2.47;0.85;;;20.20;99.90;;;;;;4857779;29;20029;-35
2022/07/26 09:15:41;;;;;;;1.55;0.32;;;20.30;99.90;;;;;;4848986;29;20040;-34
2022/07/26 09:18:23;;;;;;;1.58;0.40;;;20.20;99.90;;;;;;4825010;29;20029;-38
2022/07/26 09:20:48;;;;;;;4.00;0.90;;;20.00;99.90;;;;;;4842460;29;20033;-33
2022/07/26 09:23:15;;;;;;;2.78;0.60;;;19.70;99.90;;;;;;4842121;29;20073;-37
2022/07/26 09:25:42;;;;;;;0.88;0.43;;;19.50;99.90;;;;;;4846977;29;20033;-38
2022/07/26 09:28:27;;;;;;;1.67;0.75;;;19.40;99.90;;;;;;4845975;29;20021;-37
2022/07/26 09:31:01;;;;;;;1.50;0.52;;;19.30;99.90;;;;;;4824814;29;20057;-34
2022/07/26 09:33:43;;;;;;;3.70;0.38;;;19.30;99.90;;;;;;4840574;29;20513;-38
2022/07/26 09:36:08;;;;;;;2.65;0.60;;;19.60;99.90;;;;;;4841452;29;20053;-36
2022/07/26 09:38:49;;;;;;;2.72;0.50;;;19.50;99.90;;;;;;4843437;29;20474;-35
2022/07/26 09:41:30;;;;;;;11.07;0.70;;;19.20;99.90;;;;;;4847960;29;20644;-38
2022/07/26 09:43:59;;;;;;;2.95;0.40;;;19.00;99.90;;;;;;4848196;29;20045;-33
2022/07/26 09:46:26;;;;;;;1.20;0.30;;;18.80;99.90;;;;;;4831410;29;20026;-38
2022/07/26 09:48:54;;;;;;;8.43;0.55;;;18.60;99.90;;;;;;4848756;29;20045;-33
2022/07/26 09:51:33;;;;;;;;;;;18.40;99.90;;;;;;4840820;29;20026;-36
2022/07/26 09:53:59;;;;;;;2.83;0.60;;;18.40;99.90;;;;;;4836044;29;19955;-37
2022/07/26 09:56:39;;;;;;;4.45;0.52;;;18.50;99.90;;;;;;4834967;29;20558;-34
2022/07/26 09:59:05;;;;;;;1.58;0.30;;;18.50;99.90;;;;;;4832733;29;20173;-34
2022/07/26 10:01:31;;;;;;;0.75;0.20;;;18.60;99.90;;;;;;4838543;29;20487;-39
2022/07/26 10:03:58;;;;;;;3.15;0.60;;;18.60;99.90;;;;;;4835926;29;20033;-40
2022/07/26 10:06:24;;;;;;;3.60;0.40;;;18.70;99.90;;;;;;4836976;29;20490;-34
2022/07/26 10:08:50;;;;;;;4.75;0.45;;;18.80;99.90;;;;;;4838763;29;20038;-40
2022/07/26 10:11:19;;;;;;;3.43;0.50;;;18.80;99.90;;;;;;4841148;29;20182;-42
2022/07/26 10:13:44;;;;;;;1.17;0.30;;;18.90;99.90;;;;;;4838729;29;20044;-36
2022/07/26 10:16:30;;;;;;;2.63;0.43;;;19.00;99.90;;;;;;4838618;29;20469;-34
2022/07/26 10:18:57;;;;;;;1.65;0.52;;;19.10;99.90;;;;;;4837565;29;20117;-35
2022/07/26 10:21:31;;;;;;;2.67;0.30;;;19.20;99.90;;;;;;4831184;29;20435;-38
2022/07/26 10:23:58;;;;;;;4.25;0.60;;;19.20;99.90;;;;;;4837530;29;20113;-38
2022/07/26 10:26:35;;;;;;;4.13;0.63;;;19.00;99.90;;;;;;4838673;29;20506;-38
2022/07/26 10:29:16;;;;;;;3.63;0.50;;;18.70;99.90;;;;;;4834165;29;20041;-36
2022/07/26 10:31:42;;;;;;;1.65;0.77;;;18.40;99.90;;;;;;4845734;29;20036;-33
2022/07/26 10:34:08;;;;;;;2.78;0.63;;;18.10;99.90;;;;;;4837574;29;20522;-38
2022/07/26 10:36:36;;;;;;;1.40;0.45;;;18.00;99.90;;;;;;4840890;29;20038;-40
2022/07/26 10:39:13;;;;;;;2.15;0.63;;;17.90;99.90;;;;;;4842719;29;20054;-34
2022/07/26 10:41:43;;;;;;;3.90;0.80;;;17.90;99.90;;;;;;4844528;29;20033;-36
2022/07/26 10:44:23;;;;;;;5.03;0.47;;;17.90;99.90;;;;;;4842740;29;20321;-39
2022/07/26 10:47:07;;;;;;;1.98;0.40;;;18.00;99.90;;;;;;4838334;29;20030;-37
2022/07/26 10:49:54;;;;;;;9.70;1.23;;;18.10;99.90;;;;;;4837251;29;20049;-38
2022/07/26 10:52:29;;;;;;;4.43;0.60;;;18.20;99.90;;;;;;4835733;29;20427;-33
2022/07/26 10:55:03;;;;;;;4.15;0.50;;;18.30;99.90;;;;;;4839284;29;20033;-35
2022/07/26 10:57:45;;;;;;;2.10;0.82;;;18.40;99.90;;;;;;4842440;29;20526;-34
2022/07/26 11:00:14;;;;;;;3.92;0.55;;;18.50;99.90;;;;;;4843847;29;20102;-38
2022/07/26 11:02:42;;;;;;;2.55;0.80;;;18.80;99.90;;;;;;4844434;29;20033;-35
2022/07/26 11:05:16;;;;;;;1.25;0.40;;;19.00;99.90;;;;;;4820592;29;20175;-40
2022/07/26 11:07:58;;;;;;;2.17;0.50;;;19.20;99.90;;;;;;4837615;29;20561;-34
2022/07/26 11:10:34;;;;;;;1.27;0.40;;;19.40;99.90;;;;;;4846020;29;20037;-32
2022/07/26 11:13:13;;;;;;;0.80;0.43;;;19.40;99.90;;;;;;4834354;29;20057;-33
2022/07/26 11:15:41;;;;;;;3.92;0.65;;;19.50;99.90;;;;;;4848827;29;20030;-32
2022/07/26 11:18:14;;;;;;;1.55;0.80;;;19.80;99.90;;;;;;4838349;29;20038;-38
2022/07/26 11:20:43;;;;;;;3.35;0.40;;;20.00;99.90;;;;;;4837009;29;20030;-36
2022/07/26 11:23:32;;;;;;;3.40;0.80;;;19.90;99.90;;;;;;4837171;29;20097;-30
2022/07/26 11:26:06;;;;;;;2.85;0.50;;;19.80;99.90;;;;;;4842332;29;20050;-34
2022/07/26 11:28:51;;;;;;;0.75;0.50;;;19.60;99.90;;;;;;4843967;29;20039;-38
2022/07/26 11:31:19;;;;;;;0.90;0.40;;;19.50;99.90;;;;;;4841310;29;20113;-33
2022/07/26 11:33:47;;;;;;;3.50;0.60;;;19.50;99.90;;;;;;4839260;29;20966;-33
2022/07/26 11:36:13;;;;;;;3.42;0.70;;;19.60;99.90;;;;;;4845924;29;20041;-37
2022/07/26 11:38:58;;;;;;;2.95;1.05;;;19.60;99.90;;;;;;4840629;29;20075;-37
2022/07/26 11:41:27;;;;;;;2.30;0.82;;;19.90;99.90;;;;;;4838463;29;20482;-38
2022/07/26 11:43:53;;;;;;;1.65;0.60;;;20.00;99.90;;;;;;4838731;29;20538;-31
2022/07/26 11:46:19;;;;;;;4.25;0.85;;;20.10;99.90;;;;;;4846698;29;20029;-33
2022/07/26 11:48:47;;;;;;;2.92;0.50;;;20.20;99.90;;;;;;4834706;29;20550;-37
2022/07/26 11:51:22;;;;;;;6.45;1.33;;;20.50;99.90;;;;;;4835125;29;20177;-32
2022/07/26 11:53:48;;;;;;;6.95;2.25;;;20.60;99.90;;;;;;4836312;29;20033;-38
2022/07/26 11:56:15;;;;;;;2.53;0.60;;;20.70;99.90;;;;;;4833019;29;20021;-37
2022/07/26 11:58:43;;;;;;;2.95;0.63;;;20.90;99.90;;;;;;4834864;29;20064;-35
2022/07/26 12:01:09;;;;;;;3.67;0.70;;;21.00;99.90;;;;;;4838227;29;20576;-33
2022/07/26 12:03:40;;;;;;;5.53;1.10;;;21.00;99.90;;;;;;4832846;29;20053;-39
2022/07/26 12:06:08;;;;;;;6.28;0.45;;;21.10;99.90;;;;;;4836976;29;20510;-39
2022/07/26 12:08:44;;;;;;;2.33;0.85;;;21.00;99.90;;;;;;4832212;29;20512;-32
2022/07/26 12:11:10;;;;;;;6.68;0.82;;;20.70;99.90;;;;;;4832991;29;20041;-39
2022/07/26 12:13:56;;;;;;;6.43;0.88;;;20.50;99.90;;;;;;4836072;29;20036;-35
2022/07/26 12:16:40;;;;;;;5.47;1.17;;;20.40;99.90;;;;;;4838155;29;20459;-40
2022/07/26 12:19:09;;;;;;;6.97;0.90;;;20.40;99.90;;;;;;4835266;29;20041;-36
2022/07/26 12:21:41;;;;;;;3.13;0.65;;;20.40;99.90;;;;;;4839656;29;20033;-34
2022/07/26 12:24:07;;;;;;;3.90;0.82;;;20.60;99.90;;;;;;4838094;29;20862;-36
2022/07/26 12:26:33;;;;;;;7.10;1.92;;;20.70;99.90;;;;;;4834439;29;20585;-34
2022/07/26 12:31:43;;;;;;;4.32;1.20;;;21.10;99.90;;;;;;4841734;29;20093;-39
2022/07/26 12:34:10;;;;;;;1.17;1.08;;;21.40;99.90;;;;;;4829723;29;20148;-32
2022/07/26 12:36:37;;;;;;;1.85;0.60;;;21.50;99.90;;;;;;4819023;29;20340;-35
2022/07/26 12:39:04;;;;;;;4.82;0.52;;;21.40;99.90;;;;;;4836249;29;20128;-35
2022/07/26 12:41:34;;;;;;;4.47;1.17;;;21.20;99.90;;;;;;4837783;29;20093;-40
2022/07/26 12:44:00;;;;;;;4.80;1.27;;;21.00;99.90;;;;;;4840737;29;20076;-39
2022/07/26 12:46:26;;;;;;;12.02;1.10;;;21.00;99.90;;;;;;4837470;29;20824;-41
2022/07/26 12:48:52;;;;;;;3.88;0.80;;;20.90;99.90;;;;;;4833114;29;20518;-32
2022/07/26 12:51:17;;;;;;;3.83;1.27;;;21.00;99.90;;;;;;4834764;29;20066;-39
2022/07/26 12:53:43;;;;;;;6.80;0.98;;;21.10;99.90;;;;;;4834129;29;20052;-34
2022/07/26 12:56:09;;;;;;;2.97;0.80;;;21.40;99.90;;;;;;4837516;29;20580;-31